Inca, Spain
Current Conditions -  °F | °C
As of 10:00 PM on Tuesday 25 Nov 2014 (Local Time) from LEPA Reporting Station
Broken Clouds Broken Clouds  
Wind Chill: 59°   Ceiling: 6200
Heat Index: 59°   Visibility: 6mi
Dew Point: 57°   Wind: 2mph
Humidity: 94%   Direction: 70°ENE
Pressure: 30"   Gusts: NA
Location:  39.72°N, 2.91°E
Report Text: LEPA 252100Z 07002KT 9999 FEW030 BKN062 15/14 Q1016 NOSIG
Loading
Personal Weather Stations






























Interactive Weather Map New forecast layout! Learn more

10-Day Weather Forecast

Advertisements
Track Severe Weather on mobile